createdAt,value
2023-03-25T00:00:50.133Z,14.35
2023-03-25T00:05:24.500Z,14.35
2023-03-25T00:08:29.546Z,14.39
2023-03-25T00:11:32.735Z,14.44
2023-03-25T00:14:37.128Z,14.48
2023-03-25T00:17:40.486Z,14.51
2023-03-25T00:20:49.683Z,14.54
2023-03-25T00:23:58.029Z,14.56
2023-03-25T00:27:01.209Z,14.52
2023-03-25T00:30:12.855Z,14.47
2023-03-25T00:33:19.341Z,14.42
2023-03-25T00:36:24.972Z,14.38
2023-03-25T00:39:30.437Z,14.35
2023-03-25T00:42:34.407Z,14.33
2023-03-25T00:45:41.106Z,14.31
2023-03-25T00:48:45.515Z,14.29
2023-03-25T00:51:52.865Z,14.26
2023-03-25T00:55:01.481Z,14.24
2023-03-25T00:58:04.846Z,14.20
2023-03-25T01:01:19.545Z,14.17
2023-03-25T01:04:23.841Z,14.14
2023-03-25T01:07:28.894Z,14.11
2023-03-25T01:10:31.960Z,14.07
2023-03-25T01:13:37.383Z,14.05
2023-03-25T01:16:43.081Z,14.02
2023-03-25T01:19:45.683Z,13.97
2023-03-25T01:22:49.817Z,13.93
2023-03-25T01:25:52.161Z,13.90
2023-03-25T01:28:55.570Z,13.87
2023-03-25T01:31:58.361Z,13.84
2023-03-25T01:35:06.673Z,13.80
2023-03-25T01:38:10.987Z,13.76
2023-03-25T01:41:13.369Z,13.73
2023-03-25T01:44:24.900Z,13.70
2023-03-25T01:47:28.245Z,13.66
2023-03-25T01:50:39.019Z,13.62
2023-03-25T01:53:42.385Z,13.56
2023-03-25T01:56:48.172Z,13.50
2023-03-25T01:59:55.034Z,13.44
2023-03-25T02:05:26.716Z,13.35
2023-03-25T02:08:32.704Z,13.33
2023-03-25T02:11:35.800Z,13.31
2023-03-25T02:14:40.983Z,13.30
2023-03-25T02:17:44.841Z,13.27
2023-03-25T02:21:10.826Z,13.25
2023-03-25T02:24:59.391Z,13.22
2023-03-25T02:28:35.255Z,13.19
2023-03-25T02:31:51.353Z,13.15
2023-03-25T02:35:24.493Z,13.12
2023-03-25T02:39:05.322Z,13.07
2023-03-25T02:42:26.393Z,13.01
2023-03-25T02:45:37.657Z,12.97
2023-03-25T02:49:12.491Z,12.93
2023-03-25T02:52:25.231Z,12.91
2023-03-25T02:55:35.212Z,12.88
2023-03-25T02:58:41.407Z,12.84
2023-03-25T03:01:46.095Z,12.82
2023-03-25T03:04:56.083Z,12.80
2023-03-25T03:08:48.454Z,12.79
2023-03-25T03:12:03.022Z,12.76
2023-03-25T03:15:22.794Z,12.71
2023-03-25T03:19:01.816Z,12.66
2023-03-25T03:22:37.204Z,12.60
2023-03-25T03:26:04.152Z,12.51
2023-03-25T03:29:24.929Z,12.44
2023-03-25T03:32:32.472Z,12.39
2023-03-25T03:35:42.397Z,12.34
2023-03-25T03:39:00.259Z,12.32
2023-03-25T03:42:18.562Z,12.31
2023-03-25T03:45:35.651Z,12.31
2023-03-25T03:48:48.123Z,12.30
2023-03-25T03:52:10.651Z,12.30
2023-03-25T03:55:20.956Z,12.30
2023-03-25T03:58:30.904Z,12.31
2023-03-25T04:05:20.851Z,12.25
2023-03-25T04:08:43.477Z,12.23
2023-03-25T04:12:02.164Z,12.21
2023-03-25T04:15:09.583Z,12.17
2023-03-25T04:18:14.446Z,12.14
2023-03-25T04:21:18.122Z,12.10
2023-03-25T04:24:30.848Z,12.05
2023-03-25T04:27:37.202Z,12.01
2023-03-25T04:30:40.305Z,11.97
2023-03-25T04:33:48.866Z,11.91
2023-03-25T04:36:55.629Z,11.87
2023-03-25T04:40:00.696Z,11.83
2023-03-25T04:43:06.519Z,11.80
2023-03-25T04:46:13.554Z,11.77
2023-03-25T04:49:22.791Z,11.76
2023-03-25T04:52:26.458Z,11.76
2023-03-25T04:55:34.749Z,11.77
2023-03-25T04:58:39.814Z,11.80
2023-03-25T05:01:45.340Z,11.83
2023-03-25T05:04:47.924Z,11.87
2023-03-25T05:07:58.573Z,11.91
2023-03-25T05:11:02.715Z,11.96
2023-03-25T05:14:07.608Z,12.00
2023-03-25T05:17:12.146Z,12.04
2023-03-25T05:20:19.978Z,12.09
2023-03-25T05:23:25.478Z,12.14
2023-03-25T05:26:36.534Z,12.19
2023-03-25T05:29:44.060Z,12.26
2023-03-25T05:32:56.442Z,12.31
2023-03-25T05:36:01.551Z,12.38
2023-03-25T05:39:05.324Z,12.46
2023-03-25T05:42:15.425Z,12.52
2023-03-25T05:45:23.162Z,12.52
2023-03-25T05:48:28.408Z,12.53
2023-03-25T05:51:38.826Z,12.55
2023-03-25T05:54:51.456Z,12.54
2023-03-25T05:57:54.094Z,12.57
2023-03-25T06:05:23.206Z,12.62
2023-03-25T06:08:29.491Z,12.66
2023-03-25T06:11:42.872Z,12.68
2023-03-25T06:14:53.418Z,12.69
2023-03-25T06:18:01.131Z,12.66
2023-03-25T06:21:05.673Z,12.62
2023-03-25T06:24:11.901Z,12.61
2023-03-25T06:27:19.129Z,12.60
2023-03-25T06:30:21.674Z,12.58
2023-03-25T06:33:45.125Z,12.58
2023-03-25T06:36:53.607Z,12.60
2023-03-25T06:39:58.958Z,12.61
2023-03-25T06:43:02.680Z,12.61
2023-03-25T06:46:34.898Z,12.64
2023-03-25T06:49:56.143Z,12.72
2023-03-25T06:52:59.042Z,12.80
2023-03-25T06:56:04.586Z,12.87
2023-03-25T06:59:10.050Z,12.91
2023-03-25T07:02:16.825Z,12.94
2023-03-25T07:05:21.958Z,13.00
2023-03-25T07:08:26.638Z,13.05
2023-03-25T07:11:33.836Z,13.12
2023-03-25T07:14:38.388Z,13.24
2023-03-25T07:17:54.792Z,13.35
2023-03-25T07:21:58.642Z,13.45
2023-03-25T07:25:18.715Z,13.57
2023-03-25T07:29:17.025Z,13.63
2023-03-25T07:32:35.088Z,13.64
2023-03-25T07:36:21.231Z,13.62
2023-03-25T07:40:03.078Z,13.61
2023-03-25T07:43:43.120Z,13.70
2023-03-25T07:47:28.763Z,13.85
2023-03-25T07:50:40.692Z,13.89
2023-03-25T07:54:25.759Z,13.90
2023-03-25T07:58:03.862Z,13.93
2023-03-25T08:01:20.974Z,13.93
2023-03-25T08:04:30.842Z,13.93
2023-03-25T08:07:37.684Z,13.96
2023-03-25T08:10:44.163Z,14.05
2023-03-25T08:13:57.054Z,14.11
2023-03-25T08:17:07.890Z,14.17
2023-03-25T08:20:16.608Z,14.21
2023-03-25T08:23:26.945Z,14.24
2023-03-25T08:26:33.947Z,14.24
2023-03-25T08:30:05.382Z,14.27
2023-03-25T08:33:11.748Z,14.31
2023-03-25T08:36:31.415Z,14.35
2023-03-25T08:39:40.276Z,14.37
2023-03-25T08:42:48.168Z,14.41
2023-03-25T08:45:55.344Z,14.42
2023-03-25T08:48:57.829Z,14.41
2023-03-25T08:52:02.305Z,14.42
2023-03-25T08:55:12.229Z,14.43
2023-03-25T08:58:21.052Z,14.49
2023-03-25T09:01:41.773Z,14.49
2023-03-25T09:04:45.506Z,14.45
2023-03-25T09:11:36.844Z,14.44
2023-03-25T09:14:41.386Z,14.56
2023-03-25T09:18:10.479Z,14.67
2023-03-25T09:22:23.929Z,14.79
2023-03-25T09:26:03.279Z,14.86
2023-03-25T09:29:09.342Z,14.95
2023-03-25T09:32:18.920Z,15.00
2023-03-25T09:35:22.035Z,15.10
2023-03-25T09:38:36.749Z,15.20
2023-03-25T09:42:00.245Z,15.14
2023-03-25T09:45:33.539Z,15.03
2023-03-25T09:48:40.382Z,15.03
2023-03-25T09:51:55.189Z,15.05
2023-03-25T09:55:06.206Z,15.07
2023-03-25T09:58:43.378Z,15.04
2023-03-25T10:05:36.082Z,15.19
2023-03-25T10:08:39.845Z,15.32
2023-03-25T10:12:10.560Z,15.29
2023-03-25T10:16:22.972Z,15.34
2023-03-25T10:20:12.279Z,15.36
2023-03-25T10:23:59.250Z,15.33
2023-03-25T10:27:28.475Z,15.35
2023-03-25T10:30:46.209Z,15.42
2023-03-25T10:33:59.330Z,15.51
2023-03-25T10:37:10.767Z,15.62
2023-03-25T10:40:29.338Z,15.67
2023-03-25T10:43:39.423Z,15.67
2023-03-25T10:47:41.262Z,15.66
2023-03-25T10:50:47.025Z,15.77
2023-03-25T10:53:53.125Z,15.83
2023-03-25T10:57:01.949Z,15.99
2023-03-25T11:00:26.256Z,16.15
2023-03-25T11:03:34.067Z,16.25
2023-03-25T11:06:47.397Z,16.36
2023-03-25T11:09:56.941Z,16.49
2023-03-25T11:13:03.977Z,16.70
2023-03-25T11:16:14.050Z,16.99
2023-03-25T11:19:39.970Z,17.31
2023-03-25T11:22:51.403Z,17.40
2023-03-25T11:25:57.232Z,17.30
2023-03-25T11:29:18.672Z,17.11
2023-03-25T11:32:46.881Z,16.87
2023-03-25T11:35:55.387Z,16.70
2023-03-25T11:39:24.457Z,16.64
2023-03-25T11:42:49.301Z,16.54
2023-03-25T11:45:54.546Z,16.47
2023-03-25T11:49:12.326Z,16.42
2023-03-25T11:52:23.749Z,16.29
2023-03-25T11:55:43.798Z,16.22
2023-03-25T11:58:51.671Z,16.16
2023-03-25T12:02:05.087Z,16.07
2023-03-25T12:05:14.065Z,15.88
2023-03-25T12:08:24.874Z,15.73
2023-03-25T12:11:58.170Z,15.66
2023-03-25T12:15:31.555Z,15.56
2023-03-25T12:19:11.634Z,15.46
2023-03-25T12:22:26.163Z,15.40
2023-03-25T12:25:52.196Z,15.40
2023-03-25T12:41:23.049Z,15.32
2023-03-25T12:44:56.631Z,15.26
2023-03-25T12:48:33.155Z,15.23
2023-03-25T12:51:53.105Z,15.19
2023-03-25T12:54:59.371Z,15.18
2023-03-25T12:58:34.381Z,15.16
2023-03-25T13:02:20.974Z,15.18
2023-03-25T13:06:45.619Z,15.21
2023-03-25T13:10:28.607Z,15.23
2023-03-25T13:13:36.247Z,15.31
2023-03-25T13:17:05.548Z,15.45
2023-03-25T13:20:10.838Z,15.64
2023-03-25T13:23:24.795Z,15.75
2023-03-25T13:26:59.392Z,15.85
2023-03-25T13:31:04.153Z,16.01
2023-03-25T13:35:26.562Z,16.20
2023-03-25T13:39:48.265Z,16.47
2023-03-25T13:43:37.885Z,16.74
2023-03-25T13:47:32.578Z,17.09
2023-03-25T13:51:03.495Z,17.30
2023-03-25T13:54:52.380Z,17.23
2023-03-25T14:06:28.263Z,16.79
2023-03-25T14:10:45.685Z,16.65
2023-03-25T14:14:40.075Z,16.51
2023-03-25T14:19:12.550Z,16.43
2023-03-25T14:26:52.358Z,16.15
2023-03-25T14:30:15.934Z,16.02
2023-03-25T14:39:06.861Z,15.80
2023-03-25T14:43:06.694Z,15.74
2023-03-25T14:46:53.388Z,15.69
2023-03-25T14:50:35.202Z,15.61
2023-03-25T15:08:41.667Z,15.31
2023-03-25T15:32:48.417Z,15.26
2023-03-25T15:41:35.691Z,15.18
2023-03-25T15:46:02.646Z,15.15
2023-03-25T16:04:46.599Z,15.01
2023-03-25T16:08:24.324Z,14.98
2023-03-25T16:22:57.282Z,14.94
2023-03-25T16:26:51.120Z,14.92
2023-03-25T16:36:07.809Z,14.87
2023-03-25T16:40:12.872Z,14.84
2023-03-25T17:10:13.212Z,14.68
2023-03-25T17:19:33.342Z,14.64
2023-03-25T17:27:45.127Z,14.58
2023-03-25T17:30:59.015Z,14.55
2023-03-25T17:34:23.940Z,14.52
2023-03-25T17:37:56.265Z,14.47
2023-03-25T17:41:11.121Z,14.42
2023-03-25T17:44:21.444Z,14.39
2023-03-25T17:47:41.490Z,14.34
2023-03-25T17:50:52.901Z,14.30
2023-03-25T17:54:00.766Z,14.26
2023-03-25T17:57:11.676Z,14.23
2023-03-25T18:00:18.148Z,14.21
2023-03-25T18:05:33.221Z,14.15
2023-03-25T18:08:41.758Z,14.13
2023-03-25T18:11:52.072Z,14.10
2023-03-25T18:15:05.598Z,14.07
2023-03-25T18:18:15.925Z,14.06
2023-03-25T18:22:19.954Z,14.04
2023-03-25T18:31:32.008Z,13.95
2023-03-25T18:35:52.799Z,13.91
2023-03-25T18:55:33.459Z,13.45
2023-03-25T18:59:07.532Z,13.29
2023-03-25T19:02:57.206Z,13.14
2023-03-25T19:11:11.832Z,12.93
2023-03-25T19:14:57.391Z,12.76
2023-03-25T19:19:03.661Z,12.63
2023-03-25T19:23:08.604Z,12.49
2023-03-25T19:27:35.044Z,12.34
2023-03-25T19:36:24.369Z,12.13
2023-03-25T19:44:20.722Z,12.14
2023-03-25T19:48:00.954Z,12.14
2023-03-25T19:51:18.487Z,12.14
2023-03-25T19:54:30.840Z,12.13
2023-03-25T19:57:35.058Z,12.15
2023-03-25T20:00:46.968Z,12.15
2023-03-25T20:04:38.757Z,12.14
2023-03-25T20:07:49.820Z,12.15
2023-03-25T20:11:06.966Z,12.15
2023-03-25T20:14:14.600Z,12.18
2023-03-25T20:17:40.563Z,12.21
2023-03-25T20:21:03.480Z,12.23
2023-03-25T20:24:18.645Z,12.27
2023-03-25T20:27:31.805Z,12.29
2023-03-25T20:30:38.962Z,12.31
2023-03-25T20:33:49.660Z,12.33
2023-03-25T20:36:57.449Z,12.34
2023-03-25T20:40:11.842Z,12.29
2023-03-25T20:43:34.654Z,12.22
2023-03-25T20:46:43.747Z,12.18
2023-03-25T20:49:52.860Z,12.19
2023-03-25T20:54:18.236Z,12.22
2023-03-25T20:58:04.543Z,12.25
2023-03-25T21:03:05.333Z,12.28
2023-03-25T21:06:24.476Z,12.27
2023-03-25T21:09:34.613Z,12.25
2023-03-25T21:12:49.011Z,12.20
2023-03-25T21:16:01.570Z,12.17
2023-03-25T21:19:15.733Z,12.13
2023-03-25T21:22:24.309Z,12.08
2023-03-25T21:25:37.647Z,12.04
2023-03-25T21:28:44.332Z,12.00
2023-03-25T21:31:52.298Z,11.97
2023-03-25T21:35:00.468Z,11.93
2023-03-25T21:38:09.904Z,11.87
2023-03-25T21:41:17.091Z,11.80
2023-03-25T21:44:28.691Z,11.70
2023-03-25T21:47:38.193Z,11.60
2023-03-25T21:50:46.153Z,11.48
2023-03-25T21:53:52.387Z,11.39
2023-03-25T21:56:58.797Z,11.33
2023-03-25T22:00:07.188Z,11.26
2023-03-25T22:05:25.616Z,11.10
2023-03-25T22:08:30.161Z,11.00
2023-03-25T22:11:37.848Z,10.94
2023-03-25T22:14:46.111Z,10.90
2023-03-25T22:17:51.551Z,10.87
2023-03-25T22:21:23.822Z,10.84
2023-03-25T22:24:32.234Z,10.78
2023-03-25T22:27:43.938Z,10.74
2023-03-25T22:30:52.525Z,10.69
2023-03-25T22:34:02.431Z,10.64
2023-03-25T22:37:08.669Z,10.60
2023-03-25T22:40:17.199Z,10.56
2023-03-25T22:43:23.665Z,10.52
2023-03-25T22:46:29.609Z,10.50
2023-03-25T22:49:39.891Z,10.47
2023-03-25T22:52:43.781Z,10.44
2023-03-25T22:55:55.450Z,10.40
2023-03-25T22:59:02.368Z,10.36
2023-03-25T23:02:14.205Z,10.33
2023-03-25T23:05:20.022Z,10.30
2023-03-25T23:08:29.889Z,10.27
2023-03-25T23:11:36.041Z,10.24
2023-03-25T23:14:48.856Z,10.23
2023-03-25T23:18:01.462Z,10.20
2023-03-25T23:21:09.855Z,10.18
2023-03-25T23:24:17.957Z,10.17
2023-03-25T23:27:28.464Z,10.16
2023-03-25T23:30:40.110Z,10.16
2023-03-25T23:33:45.885Z,10.14
2023-03-25T23:36:50.851Z,10.13
2023-03-25T23:40:00.607Z,10.12
2023-03-25T23:43:05.574Z,10.12
2023-03-25T23:46:12.755Z,10.12
2023-03-25T23:49:20.253Z,10.13
2023-03-25T23:52:32.838Z,10.17
2023-03-25T23:55:37.269Z,10.21
2023-03-25T23:58:40.606Z,10.23
